Walton, Texas
Current Conditions -  °F | °C
As of 8:15 PM on Thursday 18 Dec 2014 (Local Time) from KF44 Reporting Station
Overcast Overcast  
Wind Chill: 44°   Ceiling: 500
Heat Index: 46°   Visibility: 7mi
Dew Point: 46°   Wind: 5mph
Humidity: 100%   Direction: 30°NNE
Pressure: 30.14"   Gusts: NA
Location:  32.2052°N, 95.8517°W
Report Text: KF44 190215Z AUTO 03004KT 7SM OVC005 08/08 A3014 RMK AO2
Loading
Personal Weather Stations






























Interactive Weather Map New forecast layout! Learn more

10-Day Weather Forecast

Advertisements
Track Severe Weather on mobile